• Join FlightAware (Why Join?)
  • Login
  • US Flag 
01:36AM EDT


 

Airport Tracker/Info


-or-


 

Live Flight TrackerFlight Track Log ✈ N91KY ✈ 24-Jul-2013 ✈ KOSU - KUES

Flight Track Log - Related Links

Times and Time Zones

All times are in EDT time to prevent confusion due to time zone crossing. See the N91KY flight status page for this flight to view local times or setup timezone preferences in your user account.

Time Position Orientation Groundspeed Altitude Reporting Facility
EDT Latitude Longitude Course Direction KTS MPH feet Rate Location/Type
01:58PM 40.0789 -83.0536 290° West 180 207 1,600  Level Indianapolis Center
01:59PM 40.1040 -83.0120 40° Northeast 3,400 2,520 Climbing FlightAware
01:59PM 40.1083 -83.0089 49° Northeast 208 239 3,700 -60 Climbing Indianapolis Center
01:59PM 40.1450 -83.0330 339° North 6,400 -60 Climbing FlightAware
02:02PM 40.2712 -83.2423 294° West  Level Estimated
02:03PM 40.3321 -83.3439 290° West  Level Estimated
02:04PM 40.1740 -83.5320 49° Northeast 18,700  Level FlightAware
02:05PM 40.1810 -83.6400 275° West 20,400 -360 Climbing FlightAware
02:06PM 40.1900 -83.7890 275° West 22,500 -420 Climbing FlightAware
02:07PM 40.2020 -83.9810 275° West 24,300 -480 Climbing FlightAware
02:09PM 37.3730 -86.0870 211° Southwest 46,600 -540 Climbing FlightAware
02:10PM 37.7540 -86.0870 360° North 16,400 -1,080 Descending FlightAware
02:12PM 40.5720 -84.5470 22° Northeast 30,000 -360 Climbing FlightAware
02:13PM 40.6540 -84.6500 316° Northwest 30,000 -720 Level FlightAware
02:14PM 40.7200 -84.7330 316° Northwest 30,000 -780 Level FlightAware
02:14PM 40.7580 -84.7940 309° West 30,000 -780 Level FlightAware
02:15PM 40.7640 -84.9240 274° West 30,000 -780 Level FlightAware
02:16PM 40.7750 -85.0410 277° West 30,000 -780 Level FlightAware
02:16PM 40.8340 -85.0970 324° Northwest 30,000 -840 Level FlightAware
02:18PM 41.0200 -85.1110 357° North 30,000 -840 Level FlightAware
02:18PM 41.0720 -85.1210 352° North 30,000 -900 Level FlightAware
02:19PM 41.1420 -85.1730 331° Northwest 30,000 -900 Level FlightAware
02:20PM 41.2020 -85.2550 314° West 29,800 -900 Descending FlightAware
02:20PM 41.2630 -85.3380 314° West 29,100 -900 Descending FlightAware
02:22PM 41.3790 -85.4960 314° West 27,400 -900 Descending FlightAware
02:23PM 41.4550 -85.6000 314° West 25,800 -900 Descending FlightAware
02:24PM 41.5440 -85.7070 318° Northwest 24,200 -840 Descending FlightAware
02:24PM 41.6140 -85.7640 329° Northwest 24,000 -840 Descending FlightAware
02:25PM 41.6830 -85.8210 328° Northwest 23,600 -840 Descending FlightAware
02:26PM 41.7740 -85.8960 328° Northwest 22,600 -840 Descending FlightAware
02:26PM 41.8420 -85.9520 328° Northwest 21,900 -840 Descending FlightAware
02:27PM 41.9050 -86.0060 327° Northwest 21,200 -840 Descending FlightAware
02:28PM 41.9680 -86.0590 328° Northwest 20,600 -840 Descending FlightAware
02:28PM 42.0490 -86.1270 328° Northwest 19,700 -840 Descending FlightAware
02:29PM 42.1220 -86.1890 328° Northwest 18,900 -780 Descending FlightAware
02:30PM 42.1760 -86.2760 310° West 18,100 -780 Descending FlightAware
02:31PM 42.2330 -86.3980 302° West 17,100 -780 Descending FlightAware
02:32PM 42.2650 -86.4620 304° West 16,000 -780 Descending FlightAware
02:32PM 42.3240 -86.5830 303° West 15,900 -720 Descending FlightAware
02:33PM 42.3730 -86.6810 304° West 15,900 -780 Level FlightAware
02:33PM 42.4150 -86.7670 304° West 15,500 -780 Descending FlightAware
02:34PM 42.4650 -86.8690 304° West 14,700 -780 Descending FlightAware
02:35PM 42.5060 -86.9540 303° West 14,100 -780 Descending FlightAware
02:36PM 42.5510 -87.0470 303° West 13,300 -780 Descending FlightAware
02:36PM 42.5840 -87.1130 304° West 12,600 -780 Descending FlightAware
02:37PM 42.6250 -87.1980 303° West 11,500 -720 Descending FlightAware
02:38PM 42.6580 -87.2680 303° West 10,500 -660 Descending FlightAware
02:38PM 42.6910 -87.3370 303° West 9,900 -660 Descending FlightAware
02:39PM 42.7120 -87.3850 301° West 9,900 -600 Level FlightAware
02:39PM 42.7250 -87.4190 298° West 9,900 -660 Level FlightAware
02:40PM 42.7460 -87.4750 297° West 9,800 -660 Descending FlightAware
02:40PM 42.7590 -87.5100 297° West 9,500 -660 Descending FlightAware
02:41PM 42.7880 -87.5870 297° West 8,600 -660 Descending FlightAware
02:41PM 42.7970 -87.6220 289° West 8,200 -660 Descending FlightAware
02:42PM 42.8140 -87.7070 285° West 7,900 -600 Descending FlightAware
02:43PM 42.8260 -87.7650 286° West 7,900 -660 Level FlightAware
02:43PM 42.8360 -87.8150 285° West 7,900 -720 Level FlightAware
02:43PM 42.8410 -87.8380 287° West 7,900 -780 Level FlightAware
02:44PM 42.8480 -87.8730 285° West 7,900 -780 Level FlightAware
02:44PM 42.8530 -87.8980 285° West 7,900 -840 Level FlightAware
02:45PM 42.8640 -87.9520 286° West 7,900 -840 Level FlightAware
02:45PM 42.8710 -87.9880 285° West 7,900 -960 Level FlightAware
02:45PM 42.8760 -88.0130 285° West 7,900 -1,020 Level FlightAware
02:46PM 42.8860 -88.0580 287° West 7,900 -1,080 Level FlightAware
02:46PM 42.8930 -88.0940 285° West 7,900 -1,200 Level FlightAware
02:47PM 42.8990 -88.1260 284° West 7,900 -1,320 Level FlightAware
02:47PM 42.9030 -88.1430 288° West 7,600 -1,500 Descending FlightAware
02:47PM 42.9130 -88.1850 288° West 6,800 -1,500 Descending FlightAware
02:48PM 42.9200 -88.2100 291° West 6,100 -1,560 Descending FlightAware
02:48PM 42.9290 -88.2440 290° West 5,300 -1,500 Descending FlightAware
02:49PM 42.9360 -88.2740 288° West 4,900 -1,380 Descending FlightAware
02:49PM 42.9520 -88.3050 305° West 4,100 -1,500 Descending FlightAware
02:49PM 42.9640 -88.3140 331° Northwest 3,800 -1,440 Descending FlightAware
02:50PM 43.0000 -88.3167 331° Northwest 181 208 3,000 -1,200 Descending KMKE
02:51PM 43.0128 -88.3206 347° North 186 214 2,500 -900 Descending Chicago Center
02:52PM 43.0472 -88.2917 32° Northeast 165 190 1,600 -660 Descending Chicago Center
02:53PM 43.0442 -88.2361 94° East 155 178 1,200 -420 Descending Chicago Center